sensor_id;sensor_type;location;lat;lon;timestamp;P1;durP1;ratioP1;P2;durP2;ratioP2
3036;SDS011;1528;52.550;13.408;2022-11-24T00:00:21;66.70;;;61.30;;
3036;SDS011;1528;52.550;13.408;2022-11-24T00:03:06;64.23;;;58.80;;
3036;SDS011;1528;52.550;13.408;2022-11-24T00:05:51;63.60;;;57.90;;
3036;SDS011;1528;52.550;13.408;2022-11-24T00:08:39;63.47;;;57.87;;
3036;SDS011;1528;52.550;13.408;2022-11-24T00:11:27;65.30;;;59.77;;
3036;SDS011;1528;52.550;13.408;2022-11-24T00:14:14;62.70;;;57.30;;
3036;SDS011;1528;52.550;13.408;2022-11-24T00:16:59;63.17;;;57.37;;
3036;SDS011;1528;52.550;13.408;2022-11-24T00:19:45;62.80;;;57.50;;
3036;SDS011;1528;52.550;13.408;2022-11-24T00:22:30;61.93;;;56.33;;
3036;SDS011;1528;52.550;13.408;2022-11-24T00:25:17;67.30;;;61.20;;
3036;SDS011;1528;52.550;13.408;2022-11-24T00:28:03;65.20;;;59.60;;
3036;SDS011;1528;52.550;13.408;2022-11-24T00:30:49;57.87;;;52.57;;
3036;SDS011;1528;52.550;13.408;2022-11-24T00:33:35;65.70;;;59.57;;
3036;SDS011;1528;52.550;13.408;2022-11-24T00:36:21;63.57;;;57.67;;
3036;SDS011;1528;52.550;13.408;2022-11-24T00:39:09;61.07;;;55.23;;
3036;SDS011;1528;52.550;13.408;2022-11-24T00:41:57;64.73;;;58.63;;
3036;SDS011;1528;52.550;13.408;2022-11-24T00:44:43;64.13;;;57.63;;
3036;SDS011;1528;52.550;13.408;2022-11-24T00:47:29;60.67;;;55.07;;
3036;SDS011;1528;52.550;13.408;2022-11-24T00:50:15;61.43;;;55.30;;
3036;SDS011;1528;52.550;13.408;2022-11-24T00:53:01;61.20;;;55.40;;
3036;SDS011;1528;52.550;13.408;2022-11-24T00:55:47;64.73;;;59.07;;
3036;SDS011;1528;52.550;13.408;2022-11-24T00:58:35;63.47;;;57.77;;
3036;SDS011;1528;52.550;13.408;2022-11-24T01:01:21;61.80;;;55.57;;
3036;SDS011;1528;52.550;13.408;2022-11-24T01:04:08;56.93;;;50.93;;
3036;SDS011;1528;52.550;13.408;2022-11-24T01:06:54;59.50;;;54.00;;
3036;SDS011;1528;52.550;13.408;2022-11-24T01:09:39;53.10;;;48.00;;
3036;SDS011;1528;52.550;13.408;2022-11-24T01:12:26;57.93;;;52.03;;
3036;SDS011;1528;52.550;13.408;2022-11-24T01:15:12;58.43;;;53.13;;
3036;SDS011;1528;52.550;13.408;2022-11-24T01:17:58;61.63;;;55.47;;
3036;SDS011;1528;52.550;13.408;2022-11-24T01:20:43;59.87;;;54.03;;
3036;SDS011;1528;52.550;13.408;2022-11-24T01:23:29;58.70;;;52.67;;
3036;SDS011;1528;52.550;13.408;2022-11-24T01:26:16;57.40;;;52.00;;
3036;SDS011;1528;52.550;13.408;2022-11-24T01:29:03;58.50;;;52.10;;
3036;SDS011;1528;52.550;13.408;2022-11-24T01:31:50;55.53;;;49.90;;
3036;SDS011;1528;52.550;13.408;2022-11-24T01:34:36;56.60;;;50.40;;
3036;SDS011;1528;52.550;13.408;2022-11-24T01:37:21;53.80;;;48.80;;
3036;SDS011;1528;52.550;13.408;2022-11-24T01:40:07;54.57;;;49.07;;
3036;SDS011;1528;52.550;13.408;2022-11-24T01:42:54;55.50;;;50.20;;
3036;SDS011;1528;52.550;13.408;2022-11-24T01:45:40;54.93;;;49.47;;
3036;SDS011;1528;52.550;13.408;2022-11-24T01:48:27;54.73;;;49.37;;
3036;SDS011;1528;52.550;13.408;2022-11-24T01:51:19;56.97;;;51.87;;
3036;SDS011;1528;52.550;13.408;2022-11-24T01:54:09;55.80;;;50.37;;
3036;SDS011;1528;52.550;13.408;2022-11-24T01:56:59;57.17;;;51.57;;
3036;SDS011;1528;52.550;13.408;2022-11-24T01:59:49;53.10;;;47.60;;
3036;SDS011;1528;52.550;13.408;2022-11-24T02:02:40;55.47;;;49.90;;
3036;SDS011;1528;52.550;13.408;2022-11-24T02:05:29;60.97;;;55.23;;
3036;SDS011;1528;52.550;13.408;2022-11-24T02:08:21;57.00;;;51.47;;
3036;SDS011;1528;52.550;13.408;2022-11-24T02:11:10;52.33;;;47.47;;
3036;SDS011;1528;52.550;13.408;2022-11-24T02:13:56;55.30;;;50.37;;
3036;SDS011;1528;52.550;13.408;2022-11-24T02:16:43;57.30;;;51.93;;
3036;SDS011;1528;52.550;13.408;2022-11-24T02:19:34;55.73;;;50.63;;
3036;SDS011;1528;52.550;13.408;2022-11-24T02:22:32;55.93;;;50.00;;
3036;SDS011;1528;52.550;13.408;2022-11-24T02:25:29;51.97;;;47.23;;
3036;SDS011;1528;52.550;13.408;2022-11-24T02:28:24;55.67;;;50.37;;
3036;SDS011;1528;52.550;13.408;2022-11-24T02:31:12;53.40;;;47.80;;
3036;SDS011;1528;52.550;13.408;2022-11-24T02:33:58;55.33;;;50.03;;
3036;SDS011;1528;52.550;13.408;2022-11-24T02:36:43;55.73;;;50.60;;
3036;SDS011;1528;52.550;13.408;2022-11-24T02:39:29;52.43;;;47.53;;
3036;SDS011;1528;52.550;13.408;2022-11-24T02:42:14;53.23;;;48.43;;
3036;SDS011;1528;52.550;13.408;2022-11-24T02:45:01;50.27;;;45.40;;
3036;SDS011;1528;52.550;13.408;2022-11-24T02:47:47;53.20;;;47.90;;
3036;SDS011;1528;52.550;13.408;2022-11-24T02:50:32;52.33;;;47.30;;
3036;SDS011;1528;52.550;13.408;2022-11-24T02:53:18;52.87;;;48.20;;
3036;SDS011;1528;52.550;13.408;2022-11-24T02:56:03;50.67;;;45.17;;
3036;SDS011;1528;52.550;13.408;2022-11-24T02:58:49;48.83;;;44.10;;
3036;SDS011;1528;52.550;13.408;2022-11-24T03:01:36;49.10;;;44.00;;
3036;SDS011;1528;52.550;13.408;2022-11-24T03:04:22;49.17;;;44.37;;
3036;SDS011;1528;52.550;13.408;2022-11-24T03:07:08;48.60;;;43.73;;
3036;SDS011;1528;52.550;13.408;2022-11-24T03:09:53;50.77;;;45.57;;
3036;SDS011;1528;52.550;13.408;2022-11-24T03:12:39;49.90;;;44.90;;
3036;SDS011;1528;52.550;13.408;2022-11-24T03:15:24;53.07;;;47.37;;
3036;SDS011;1528;52.550;13.408;2022-11-24T03:18:11;50.20;;;45.53;;
3036;SDS011;1528;52.550;13.408;2022-11-24T03:20:58;50.47;;;45.17;;
3036;SDS011;1528;52.550;13.408;2022-11-24T03:23:44;49.37;;;44.27;;
3036;SDS011;1528;52.550;13.408;2022-11-24T03:26:29;49.63;;;44.73;;
3036;SDS011;1528;52.550;13.408;2022-11-24T03:29:15;47.17;;;42.33;;
3036;SDS011;1528;52.550;13.408;2022-11-24T03:32:00;50.60;;;45.60;;
3036;SDS011;1528;52.550;13.408;2022-11-24T03:34:47;50.93;;;46.30;;
3036;SDS011;1528;52.550;13.408;2022-11-24T03:37:33;46.30;;;41.73;;
3036;SDS011;1528;52.550;13.408;2022-11-24T03:40:18;48.57;;;43.60;;
3036;SDS011;1528;52.550;13.408;2022-11-24T03:43:04;48.23;;;43.50;;
3036;SDS011;1528;52.550;13.408;2022-11-24T03:45:50;49.50;;;44.23;;
3036;SDS011;1528;52.550;13.408;2022-11-24T03:48:35;47.50;;;42.43;;
3036;SDS011;1528;52.550;13.408;2022-11-24T03:51:23;50.77;;;45.50;;
3036;SDS011;1528;52.550;13.408;2022-11-24T03:54:09;47.07;;;42.87;;
3036;SDS011;1528;52.550;13.408;2022-11-24T03:56:54;47.27;;;42.60;;
3036;SDS011;1528;52.550;13.408;2022-11-24T03:59:40;47.37;;;42.60;;
3036;SDS011;1528;52.550;13.408;2022-11-24T04:02:25;48.47;;;43.73;;
3036;SDS011;1528;52.550;13.408;2022-11-24T04:05:11;50.30;;;45.40;;
3036;SDS011;1528;52.550;13.408;2022-11-24T04:07:57;49.10;;;45.00;;
3036;SDS011;1528;52.550;13.408;2022-11-24T04:10:48;48.43;;;43.77;;
3036;SDS011;1528;52.550;13.408;2022-11-24T04:13:34;47.30;;;42.80;;
3036;SDS011;1528;52.550;13.408;2022-11-24T04:16:19;45.53;;;41.33;;
3036;SDS011;1528;52.550;13.408;2022-11-24T04:19:04;45.53;;;41.30;;
3036;SDS011;1528;52.550;13.408;2022-11-24T04:21:50;51.30;;;46.50;;
3036;SDS011;1528;52.550;13.408;2022-11-24T04:24:37;50.37;;;45.23;;
3036;SDS011;1528;52.550;13.408;2022-11-24T04:27:22;47.83;;;43.23;;
3036;SDS011;1528;52.550;13.408;2022-11-24T04:30:08;44.60;;;40.40;;
3036;SDS011;1528;52.550;13.408;2022-11-24T04:32:54;49.00;;;44.50;;
3036;SDS011;1528;52.550;13.408;2022-11-24T04:35:39;47.10;;;42.70;;
3036;SDS011;1528;52.550;13.408;2022-11-24T04:38:25;47.03;;;42.57;;
3036;SDS011;1528;52.550;13.408;2022-11-24T04:41:12;46.87;;;42.30;;
3036;SDS011;1528;52.550;13.408;2022-11-24T04:43:57;45.30;;;40.57;;
3036;SDS011;1528;52.550;13.408;2022-11-24T04:46:43;48.27;;;43.30;;
3036;SDS011;1528;52.550;13.408;2022-11-24T04:49:28;45.80;;;41.23;;
3036;SDS011;1528;52.550;13.408;2022-11-24T04:52:14;48.87;;;44.20;;
3036;SDS011;1528;52.550;13.408;2022-11-24T04:54:59;42.90;;;38.27;;
3036;SDS011;1528;52.550;13.408;2022-11-24T04:57:47;46.53;;;40.60;;
3036;SDS011;1528;52.550;13.408;2022-11-24T05:00:32;48.93;;;40.37;;
3036;SDS011;1528;52.550;13.408;2022-11-24T05:03:18;47.17;;;42.47;;
3036;SDS011;1528;52.550;13.408;2022-11-24T05:06:04;45.77;;;40.97;;
3036;SDS011;1528;52.550;13.408;2022-11-24T05:08:51;48.60;;;44.00;;
3036;SDS011;1528;52.550;13.408;2022-11-24T05:11:36;44.73;;;40.47;;
3036;SDS011;1528;52.550;13.408;2022-11-24T05:14:23;42.70;;;38.60;;
3036;SDS011;1528;52.550;13.408;2022-11-24T05:17:11;42.57;;;38.50;;
3036;SDS011;1528;52.550;13.408;2022-11-24T05:19:57;44.00;;;39.70;;
3036;SDS011;1528;52.550;13.408;2022-11-24T05:22:42;45.10;;;40.67;;
3036;SDS011;1528;52.550;13.408;2022-11-24T05:25:27;44.57;;;40.17;;
3036;SDS011;1528;52.550;13.408;2022-11-24T05:28:13;44.80;;;40.10;;
3036;SDS011;1528;52.550;13.408;2022-11-24T05:31:01;42.30;;;38.10;;
3036;SDS011;1528;52.550;13.408;2022-11-24T05:33:47;45.83;;;40.77;;
3036;SDS011;1528;52.550;13.408;2022-11-24T05:36:33;46.47;;;41.77;;
3036;SDS011;1528;52.550;13.408;2022-11-24T05:39:36;46.63;;;42.07;;
3036;SDS011;1528;52.550;13.408;2022-11-24T05:42:22;43.47;;;39.33;;
3036;SDS011;1528;52.550;13.408;2022-11-24T05:45:25;39.83;;;35.57;;
3036;SDS011;1528;52.550;13.408;2022-11-24T05:48:13;47.07;;;42.33;;
3036;SDS011;1528;52.550;13.408;2022-11-24T05:50:59;44.07;;;39.43;;
3036;SDS011;1528;52.550;13.408;2022-11-24T05:53:44;45.53;;;40.93;;
3036;SDS011;1528;52.550;13.408;2022-11-24T05:56:30;40.53;;;36.53;;
3036;SDS011;1528;52.550;13.408;2022-11-24T05:59:16;43.27;;;38.90;;
3036;SDS011;1528;52.550;13.408;2022-11-24T06:02:01;41.77;;;37.43;;
3036;SDS011;1528;52.550;13.408;2022-11-24T06:04:48;42.27;;;38.13;;
3036;SDS011;1528;52.550;13.408;2022-11-24T06:07:33;42.37;;;38.33;;
3036;SDS011;1528;52.550;13.408;2022-11-24T06:10:20;48.33;;;43.63;;
3036;SDS011;1528;52.550;13.408;2022-11-24T06:13:06;51.30;;;46.40;;
3036;SDS011;1528;52.550;13.408;2022-11-24T06:15:51;44.10;;;39.80;;
3036;SDS011;1528;52.550;13.408;2022-11-24T06:18:37;42.30;;;38.40;;
3036;SDS011;1528;52.550;13.408;2022-11-24T06:21:24;39.17;;;35.50;;
3036;SDS011;1528;52.550;13.408;2022-11-24T06:24:09;40.97;;;37.40;;
3036;SDS011;1528;52.550;13.408;2022-11-24T06:26:55;38.90;;;35.37;;
3036;SDS011;1528;52.550;13.408;2022-11-24T06:29:40;38.37;;;34.97;;
3036;SDS011;1528;52.550;13.408;2022-11-24T06:32:26;36.57;;;33.00;;
3036;SDS011;1528;52.550;13.408;2022-11-24T06:35:12;42.27;;;38.23;;
3036;SDS011;1528;52.550;13.408;2022-11-24T06:37:59;40.07;;;36.30;;
3036;SDS011;1528;52.550;13.408;2022-11-24T06:40:44;39.67;;;36.07;;
3036;SDS011;1528;52.550;13.408;2022-11-24T06:43:30;40.67;;;36.57;;
3036;SDS011;1528;52.550;13.408;2022-11-24T06:46:16;39.57;;;35.67;;
3036;SDS011;1528;52.550;13.408;2022-11-24T06:49:02;41.13;;;36.63;;
3036;SDS011;1528;52.550;13.408;2022-11-24T06:51:47;39.53;;;35.33;;
3036;SDS011;1528;52.550;13.408;2022-11-24T06:54:34;40.67;;;36.77;;
3036;SDS011;1528;52.550;13.408;2022-11-24T06:57:20;39.97;;;35.77;;
3036;SDS011;1528;52.550;13.408;2022-11-24T07:00:06;37.73;;;33.70;;
3036;SDS011;1528;52.550;13.408;2022-11-24T07:02:53;47.63;;;43.00;;
3036;SDS011;1528;52.550;13.408;2022-11-24T07:05:39;44.23;;;39.57;;
3036;SDS011;1528;52.550;13.408;2022-11-24T07:08:24;40.13;;;35.93;;
3036;SDS011;1528;52.550;13.408;2022-11-24T07:11:12;39.90;;;36.03;;
3036;SDS011;1528;52.550;13.408;2022-11-24T07:13:58;42.83;;;38.43;;
3036;SDS011;1528;52.550;13.408;2022-11-24T07:16:44;42.63;;;38.00;;
3036;SDS011;1528;52.550;13.408;2022-11-24T07:19:30;44.93;;;40.20;;
3036;SDS011;1528;52.550;13.408;2022-11-24T07:22:16;39.30;;;35.10;;
3036;SDS011;1528;52.550;13.408;2022-11-24T07:25:01;41.13;;;37.37;;
3036;SDS011;1528;52.550;13.408;2022-11-24T07:27:55;40.43;;;36.40;;
3036;SDS011;1528;52.550;13.408;2022-11-24T07:30:40;40.90;;;36.57;;
3036;SDS011;1528;52.550;13.408;2022-11-24T07:33:26;40.60;;;36.70;;
3036;SDS011;1528;52.550;13.408;2022-11-24T07:36:12;44.97;;;40.37;;
3036;SDS011;1528;52.550;13.408;2022-11-24T07:38:57;40.00;;;36.30;;
3036;SDS011;1528;52.550;13.408;2022-11-24T07:41:43;41.90;;;37.83;;
3036;SDS011;1528;52.550;13.408;2022-11-24T07:44:30;41.83;;;37.37;;
3036;SDS011;1528;52.550;13.408;2022-11-24T07:47:15;42.10;;;37.97;;
3036;SDS011;1528;52.550;13.408;2022-11-24T07:50:01;43.50;;;39.37;;
3036;SDS011;1528;52.550;13.408;2022-11-24T07:52:46;40.33;;;36.27;;
3036;SDS011;1528;52.550;13.408;2022-11-24T07:55:32;40.73;;;37.20;;
3036;SDS011;1528;52.550;13.408;2022-11-24T07:58:18;41.20;;;37.40;;
3036;SDS011;1528;52.550;13.408;2022-11-24T08:01:12;41.67;;;37.97;;
3036;SDS011;1528;52.550;13.408;2022-11-24T08:03:59;40.97;;;37.00;;
3036;SDS011;1528;52.550;13.408;2022-11-24T08:06:45;40.20;;;36.70;;
3036;SDS011;1528;52.550;13.408;2022-11-24T08:09:30;41.50;;;37.53;;
3036;SDS011;1528;52.550;13.408;2022-11-24T08:12:16;40.50;;;36.87;;
3036;SDS011;1528;52.550;13.408;2022-11-24T08:15:05;43.60;;;39.47;;
3036;SDS011;1528;52.550;13.408;2022-11-24T08:17:54;39.60;;;36.03;;
3036;SDS011;1528;52.550;13.408;2022-11-24T08:20:40;41.70;;;37.70;;
3036;SDS011;1528;52.550;13.408;2022-11-24T08:23:25;40.43;;;36.63;;
3036;SDS011;1528;52.550;13.408;2022-11-24T08:26:11;44.37;;;40.50;;
3036;SDS011;1528;52.550;13.408;2022-11-24T08:29:00;40.40;;;36.60;;
3036;SDS011;1528;52.550;13.408;2022-11-24T08:31:46;41.17;;;37.60;;
3036;SDS011;1528;52.550;13.408;2022-11-24T08:34:32;41.37;;;37.57;;
3036;SDS011;1528;52.550;13.408;2022-11-24T08:37:18;37.83;;;34.53;;
3036;SDS011;1528;52.550;13.408;2022-11-24T08:40:03;37.57;;;34.43;;
3036;SDS011;1528;52.550;13.408;2022-11-24T08:42:50;39.40;;;35.60;;
3036;SDS011;1528;52.550;13.408;2022-11-24T08:45:35;40.20;;;36.40;;
3036;SDS011;1528;52.550;13.408;2022-11-24T08:48:21;41.53;;;38.03;;
3036;SDS011;1528;52.550;13.408;2022-11-24T08:51:08;41.70;;;37.90;;
3036;SDS011;1528;52.550;13.408;2022-11-24T08:53:55;45.43;;;41.47;;
3036;SDS011;1528;52.550;13.408;2022-11-24T08:56:41;46.03;;;42.37;;
3036;SDS011;1528;52.550;13.408;2022-11-24T08:59:27;49.10;;;45.10;;
3036;SDS011;1528;52.550;13.408;2022-11-24T09:02:12;46.50;;;42.50;;
3036;SDS011;1528;52.550;13.408;2022-11-24T09:04:58;48.97;;;45.07;;
3036;SDS011;1528;52.550;13.408;2022-11-24T09:07:45;45.77;;;41.80;;
3036;SDS011;1528;52.550;13.408;2022-11-24T09:10:30;43.80;;;40.20;;
3036;SDS011;1528;52.550;13.408;2022-11-24T09:13:16;51.13;;;47.03;;
3036;SDS011;1528;52.550;13.408;2022-11-24T09:16:02;47.60;;;43.50;;
3036;SDS011;1528;52.550;13.408;2022-11-24T09:18:52;45.03;;;41.33;;
3036;SDS011;1528;52.550;13.408;2022-11-24T09:21:39;41.50;;;37.50;;
3036;SDS011;1528;52.550;13.408;2022-11-24T09:24:26;41.60;;;37.90;;
3036;SDS011;1528;52.550;13.408;2022-11-24T09:27:11;38.47;;;35.07;;
3036;SDS011;1528;52.550;13.408;2022-11-24T09:29:57;45.43;;;41.57;;
3036;SDS011;1528;52.550;13.408;2022-11-24T09:32:42;41.97;;;37.83;;
3036;SDS011;1528;52.550;13.408;2022-11-24T09:35:28;41.63;;;38.17;;
3036;SDS011;1528;52.550;13.408;2022-11-24T09:38:13;43.50;;;39.60;;
3036;SDS011;1528;52.550;13.408;2022-11-24T09:41:10;46.30;;;42.37;;
3036;SDS011;1528;52.550;13.408;2022-11-24T09:44:16;48.83;;;44.90;;
3036;SDS011;1528;52.550;13.408;2022-11-24T09:47:22;44.67;;;40.97;;
3036;SDS011;1528;52.550;13.408;2022-11-24T09:50:17;45.07;;;41.20;;
3036;SDS011;1528;52.550;13.408;2022-11-24T09:53:06;44.37;;;40.47;;
3036;SDS011;1528;52.550;13.408;2022-11-24T09:55:55;45.23;;;41.30;;
3036;SDS011;1528;52.550;13.408;2022-11-24T09:58:46;44.40;;;40.60;;
3036;SDS011;1528;52.550;13.408;2022-11-24T10:01:34;40.77;;;36.90;;
3036;SDS011;1528;52.550;13.408;2022-11-24T10:04:21;42.60;;;38.83;;
3036;SDS011;1528;52.550;13.408;2022-11-24T10:07:13;43.00;;;38.90;;
3036;SDS011;1528;52.550;13.408;2022-11-24T10:10:05;44.40;;;40.60;;
3036;SDS011;1528;52.550;13.408;2022-11-24T10:12:56;45.17;;;41.27;;
3036;SDS011;1528;52.550;13.408;2022-11-24T10:15:53;44.90;;;41.13;;
3036;SDS011;1528;52.550;13.408;2022-11-24T10:18:52;44.43;;;40.20;;
3036;SDS011;1528;52.550;13.408;2022-11-24T10:21:48;41.47;;;37.80;;
3036;SDS011;1528;52.550;13.408;2022-11-24T10:24:46;43.60;;;39.97;;
3036;SDS011;1528;52.550;13.408;2022-11-24T10:27:43;43.33;;;39.53;;
3036;SDS011;1528;52.550;13.408;2022-11-24T10:30:30;42.67;;;38.70;;
3036;SDS011;1528;52.550;13.408;2022-11-24T10:33:17;42.03;;;38.30;;
3036;SDS011;1528;52.550;13.408;2022-11-24T10:36:05;43.17;;;38.70;;
3036;SDS011;1528;52.550;13.408;2022-11-24T10:38:56;45.93;;;41.73;;
3036;SDS011;1528;52.550;13.408;2022-11-24T10:41:47;43.53;;;39.53;;
3036;SDS011;1528;52.550;13.408;2022-11-24T10:44:36;46.80;;;42.80;;
3036;SDS011;1528;52.550;13.408;2022-11-24T10:47:22;42.93;;;38.73;;
3036;SDS011;1528;52.550;13.408;2022-11-24T10:50:12;45.73;;;41.77;;
3036;SDS011;1528;52.550;13.408;2022-11-24T10:53:08;46.37;;;42.47;;
3036;SDS011;1528;52.550;13.408;2022-11-24T10:56:01;41.93;;;38.33;;
3036;SDS011;1528;52.550;13.408;2022-11-24T10:58:48;42.43;;;38.80;;
3036;SDS011;1528;52.550;13.408;2022-11-24T11:01:34;45.07;;;41.37;;
3036;SDS011;1528;52.550;13.408;2022-11-24T11:04:22;44.50;;;40.83;;
3036;SDS011;1528;52.550;13.408;2022-11-24T11:07:16;45.13;;;41.40;;
3036;SDS011;1528;52.550;13.408;2022-11-24T11:10:16;45.83;;;41.63;;
3036;SDS011;1528;52.550;13.408;2022-11-24T11:13:18;40.23;;;37.07;;
3036;SDS011;1528;52.550;13.408;2022-11-24T11:16:12;44.57;;;40.93;;
3036;SDS011;1528;52.550;13.408;2022-11-24T11:22:19;42.90;;;39.30;;
3036;SDS011;1528;52.550;13.408;2022-11-24T11:25:18;43.87;;;40.27;;
3036;SDS011;1528;52.550;13.408;2022-11-24T11:31:16;43.57;;;40.07;;
3036;SDS011;1528;52.550;13.408;2022-11-24T11:34:12;40.27;;;37.07;;
3036;SDS011;1528;52.550;13.408;2022-11-24T11:36:59;39.93;;;36.83;;
3036;SDS011;1528;52.550;13.408;2022-11-24T11:39:48;39.40;;;36.13;;
3036;SDS011;1528;52.550;13.408;2022-11-24T11:42:36;43.40;;;40.10;;
3036;SDS011;1528;52.550;13.408;2022-11-24T11:45:27;38.87;;;35.67;;
3036;SDS011;1528;52.550;13.408;2022-11-24T11:48:19;42.20;;;38.80;;
3036;SDS011;1528;52.550;13.408;2022-11-24T11:51:17;43.50;;;40.20;;
3036;SDS011;1528;52.550;13.408;2022-11-24T11:54:17;40.00;;;36.77;;
3036;SDS011;1528;52.550;13.408;2022-11-24T11:57:15;40.27;;;37.03;;
3036;SDS011;1528;52.550;13.408;2022-11-24T12:00:11;41.60;;;38.13;;
3036;SDS011;1528;52.550;13.408;2022-11-24T12:03:15;39.60;;;36.50;;
3036;SDS011;1528;52.550;13.408;2022-11-24T12:06:19;41.87;;;38.67;;
3036;SDS011;1528;52.550;13.408;2022-11-24T12:09:17;43.43;;;40.03;;
3036;SDS011;1528;52.550;13.408;2022-11-24T12:12:19;44.17;;;40.43;;
3036;SDS011;1528;52.550;13.408;2022-11-24T12:15:27;41.50;;;37.83;;
3036;SDS011;1528;52.550;13.408;2022-11-24T12:18:22;42.77;;;39.20;;
3036;SDS011;1528;52.550;13.408;2022-11-24T12:21:15;43.00;;;39.43;;
3036;SDS011;1528;52.550;13.408;2022-11-24T12:24:04;44.70;;;41.17;;
3036;SDS011;1528;52.550;13.408;2022-11-24T12:27:02;42.40;;;39.20;;
3036;SDS011;1528;52.550;13.408;2022-11-24T12:30:04;41.73;;;38.50;;
3036;SDS011;1528;52.550;13.408;2022-11-24T12:32:58;40.60;;;37.30;;
3036;SDS011;1528;52.550;13.408;2022-11-24T12:36:06;39.40;;;36.40;;
3036;SDS011;1528;52.550;13.408;2022-11-24T12:39:00;43.40;;;39.80;;
3036;SDS011;1528;52.550;13.408;2022-11-24T12:41:53;44.13;;;40.77;;
3036;SDS011;1528;52.550;13.408;2022-11-24T12:48:00;43.37;;;40.00;;
3036;SDS011;1528;52.550;13.408;2022-11-24T12:50:57;42.40;;;38.57;;
3036;SDS011;1528;52.550;13.408;2022-11-24T12:53:43;45.87;;;41.87;;
3036;SDS011;1528;52.550;13.408;2022-11-24T12:56:34;45.47;;;41.93;;
3036;SDS011;1528;52.550;13.408;2022-11-24T12:59:26;48.30;;;44.53;;
3036;SDS011;1528;52.550;13.408;2022-11-24T13:02:21;44.27;;;40.77;;
3036;SDS011;1528;52.550;13.408;2022-11-24T13:05:17;42.10;;;38.80;;
3036;SDS011;1528;52.550;13.408;2022-11-24T13:08:07;43.07;;;39.87;;
3036;SDS011;1528;52.550;13.408;2022-11-24T13:10:52;43.33;;;39.83;;
3036;SDS011;1528;52.550;13.408;2022-11-24T13:13:53;42.57;;;38.87;;
3036;SDS011;1528;52.550;13.408;2022-11-24T13:16:53;40.77;;;37.47;;
3036;SDS011;1528;52.550;13.408;2022-11-24T13:19:41;42.67;;;39.13;;
3036;SDS011;1528;52.550;13.408;2022-11-24T13:22:27;43.77;;;40.37;;
3036;SDS011;1528;52.550;13.408;2022-11-24T13:25:14;44.80;;;41.17;;
3036;SDS011;1528;52.550;13.408;2022-11-24T13:28:03;42.20;;;38.80;;
3036;SDS011;1528;52.550;13.408;2022-11-24T13:31:20;40.47;;;37.20;;
3036;SDS011;1528;52.550;13.408;2022-11-24T13:40:41;44.23;;;40.70;;
3036;SDS011;1528;52.550;13.408;2022-11-24T13:43:27;39.90;;;36.53;;
3036;SDS011;1528;52.550;13.408;2022-11-24T13:46:14;42.13;;;38.53;;
3036;SDS011;1528;52.550;13.408;2022-11-24T13:49:38;42.80;;;39.63;;
3036;SDS011;1528;52.550;13.408;2022-11-24T13:52:44;40.83;;;37.60;;
3036;SDS011;1528;52.550;13.408;2022-11-24T13:55:33;39.90;;;36.60;;
3036;SDS011;1528;52.550;13.408;2022-11-24T13:58:26;39.83;;;36.53;;
3036;SDS011;1528;52.550;13.408;2022-11-24T14:01:18;40.33;;;37.10;;
3036;SDS011;1528;52.550;13.408;2022-11-24T14:04:11;41.00;;;37.90;;
3036;SDS011;1528;52.550;13.408;2022-11-24T14:07:02;44.50;;;41.23;;
3036;SDS011;1528;52.550;13.408;2022-11-24T14:09:50;41.40;;;38.00;;
3036;SDS011;1528;52.550;13.408;2022-11-24T14:12:36;40.73;;;37.33;;
3036;SDS011;1528;52.550;13.408;2022-11-24T14:15:23;41.07;;;37.70;;
3036;SDS011;1528;52.550;13.408;2022-11-24T14:18:17;41.97;;;38.77;;
3036;SDS011;1528;52.550;13.408;2022-11-24T14:21:14;42.23;;;39.13;;
3036;SDS011;1528;52.550;13.408;2022-11-24T14:24:19;42.33;;;39.07;;
3036;SDS011;1528;52.550;13.408;2022-11-24T14:27:10;39.60;;;36.50;;
3036;SDS011;1528;52.550;13.408;2022-11-24T14:29:59;39.90;;;36.57;;
3036;SDS011;1528;52.550;13.408;2022-11-24T14:32:53;43.20;;;40.00;;
3036;SDS011;1528;52.550;13.408;2022-11-24T14:35:43;46.57;;;42.80;;
3036;SDS011;1528;52.550;13.408;2022-11-24T14:38:30;41.17;;;37.77;;
3036;SDS011;1528;52.550;13.408;2022-11-24T14:41:19;47.33;;;43.50;;
3036;SDS011;1528;52.550;13.408;2022-11-24T14:44:14;44.57;;;40.97;;
3036;SDS011;1528;52.550;13.408;2022-11-24T14:47:04;43.83;;;40.13;;
3036;SDS011;1528;52.550;13.408;2022-11-24T14:49:51;44.63;;;41.07;;
3036;SDS011;1528;52.550;13.408;2022-11-24T14:52:45;44.83;;;41.13;;
3036;SDS011;1528;52.550;13.408;2022-11-24T14:55:36;42.60;;;39.30;;
3036;SDS011;1528;52.550;13.408;2022-11-24T14:58:28;42.57;;;38.80;;
3036;SDS011;1528;52.550;13.408;2022-11-24T15:01:20;41.90;;;38.30;;
3036;SDS011;1528;52.550;13.408;2022-11-24T15:04:12;42.40;;;39.17;;
3036;SDS011;1528;52.550;13.408;2022-11-24T15:07:00;44.53;;;40.67;;
3036;SDS011;1528;52.550;13.408;2022-11-24T15:09:58;41.80;;;38.47;;
3036;SDS011;1528;52.550;13.408;2022-11-24T15:12:47;43.67;;;39.97;;
3036;SDS011;1528;52.550;13.408;2022-11-24T15:15:35;41.47;;;37.93;;
3036;SDS011;1528;52.550;13.408;2022-11-24T15:18:23;41.30;;;37.80;;
3036;SDS011;1528;52.550;13.408;2022-11-24T15:21:11;42.17;;;38.87;;
3036;SDS011;1528;52.550;13.408;2022-11-24T15:24:03;44.37;;;40.97;;
3036;SDS011;1528;52.550;13.408;2022-11-24T15:26:58;39.80;;;36.47;;
3036;SDS011;1528;52.550;13.408;2022-11-24T15:29:44;40.07;;;36.73;;
3036;SDS011;1528;52.550;13.408;2022-11-24T15:32:29;41.43;;;37.87;;
3036;SDS011;1528;52.550;13.408;2022-11-24T15:35:15;43.63;;;39.87;;
3036;SDS011;1528;52.550;13.408;2022-11-24T15:38:00;45.30;;;41.53;;
3036;SDS011;1528;52.550;13.408;2022-11-24T15:40:47;43.20;;;39.70;;
3036;SDS011;1528;52.550;13.408;2022-11-24T15:43:35;52.97;;;48.60;;
3036;SDS011;1528;52.550;13.408;2022-11-24T15:46:22;47.40;;;43.60;;
3036;SDS011;1528;52.550;13.408;2022-11-24T15:49:08;51.17;;;46.93;;
3036;SDS011;1528;52.550;13.408;2022-11-24T15:51:54;49.47;;;45.70;;
3036;SDS011;1528;52.550;13.408;2022-11-24T15:54:40;43.97;;;40.50;;
3036;SDS011;1528;52.550;13.408;2022-11-24T15:57:25;45.97;;;42.07;;
3036;SDS011;1528;52.550;13.408;2022-11-24T16:00:17;42.03;;;38.60;;
3036;SDS011;1528;52.550;13.408;2022-11-24T16:03:03;47.23;;;43.40;;
3036;SDS011;1528;52.550;13.408;2022-11-24T16:05:50;48.80;;;44.67;;
3036;SDS011;1528;52.550;13.408;2022-11-24T16:08:38;46.80;;;43.07;;
3036;SDS011;1528;52.550;13.408;2022-11-24T16:11:23;47.60;;;43.67;;
3036;SDS011;1528;52.550;13.408;2022-11-24T16:14:09;46.40;;;42.83;;
3036;SDS011;1528;52.550;13.408;2022-11-24T16:16:56;47.27;;;43.87;;
3036;SDS011;1528;52.550;13.408;2022-11-24T16:19:42;48.00;;;44.27;;
3036;SDS011;1528;52.550;13.408;2022-11-24T16:22:27;46.07;;;42.47;;
3036;SDS011;1528;52.550;13.408;2022-11-24T16:25:13;43.73;;;40.40;;
3036;SDS011;1528;52.550;13.408;2022-11-24T16:27:59;47.00;;;43.17;;
3036;SDS011;1528;52.550;13.408;2022-11-24T16:30:46;45.37;;;41.80;;
3036;SDS011;1528;52.550;13.408;2022-11-24T16:33:34;44.00;;;40.67;;
3036;SDS011;1528;52.550;13.408;2022-11-24T16:36:23;48.10;;;44.10;;
3036;SDS011;1528;52.550;13.408;2022-11-24T16:39:09;49.67;;;45.77;;
3036;SDS011;1528;52.550;13.408;2022-11-24T16:41:55;47.47;;;43.30;;
3036;SDS011;1528;52.550;13.408;2022-11-24T16:44:40;48.87;;;45.07;;
3036;SDS011;1528;52.550;13.408;2022-11-24T16:47:26;45.33;;;41.53;;
3036;SDS011;1528;52.550;13.408;2022-11-24T16:50:13;51.17;;;47.50;;
3036;SDS011;1528;52.550;13.408;2022-11-24T16:52:59;47.00;;;43.13;;
3036;SDS011;1528;52.550;13.408;2022-11-24T16:55:50;47.13;;;43.10;;